sensor_id;sensor_type;location;lat;lon;timestamp;temperature;humidity
45619;DHT22;31343;47.520;19.144;2022-08-24T00:02:21;20.30;99.90
45619;DHT22;31343;47.520;19.144;2022-08-24T00:04:46;20.30;99.90
45619;DHT22;31343;47.520;19.144;2022-08-24T00:07:12;20.30;99.90
45619;DHT22;31343;47.520;19.144;2022-08-24T00:09:38;20.30;99.90
45619;DHT22;31343;47.520;19.144;2022-08-24T00:12:03;20.20;99.90
45619;DHT22;31343;47.520;19.144;2022-08-24T00:14:29;20.20;99.90
45619;DHT22;31343;47.520;19.144;2022-08-24T00:16:55;20.20;99.90
45619;DHT22;31343;47.520;19.144;2022-08-24T00:19:22;20.20;99.90
45619;DHT22;31343;47.520;19.144;2022-08-24T00:21:47;20.10;99.90
45619;DHT22;31343;47.520;19.144;2022-08-24T00:24:13;20.10;99.90
45619;DHT22;31343;47.520;19.144;2022-08-24T00:26:39;20.10;99.90
45619;DHT22;31343;47.520;19.144;2022-08-24T00:29:04;20.10;99.90
45619;DHT22;31343;47.520;19.144;2022-08-24T00:31:30;20.10;99.90
45619;DHT22;31343;47.520;19.144;2022-08-24T00:33:56;20.10;99.90
45619;DHT22;31343;47.520;19.144;2022-08-24T00:36:22;20.00;99.90
45619;DHT22;31343;47.520;19.144;2022-08-24T00:38:49;20.00;99.90
45619;DHT22;31343;47.520;19.144;2022-08-24T00:41:15;20.00;99.90
45619;DHT22;31343;47.520;19.144;2022-08-24T00:43:55;20.10;99.90
45619;DHT22;31343;47.520;19.144;2022-08-24T00:46:25;20.00;99.90
45619;DHT22;31343;47.520;19.144;2022-08-24T00:49:01;20.00;99.90
45619;DHT22;31343;47.520;19.144;2022-08-24T00:51:30;20.00;99.90
45619;DHT22;31343;47.520;19.144;2022-08-24T00:53:57;19.90;99.90
45619;DHT22;31343;47.520;19.144;2022-08-24T00:56:24;20.00;99.90
45619;DHT22;31343;47.520;19.144;2022-08-24T00:58:51;20.00;99.90
45619;DHT22;31343;47.520;19.144;2022-08-24T01:01:18;20.00;99.90
45619;DHT22;31343;47.520;19.144;2022-08-24T01:03:43;19.90;99.90
45619;DHT22;31343;47.520;19.144;2022-08-24T01:06:10;20.00;99.90
45619;DHT22;31343;47.520;19.144;2022-08-24T01:08:36;19.90;99.90
45619;DHT22;31343;47.520;19.144;2022-08-24T01:11:06;19.80;99.90
45619;DHT22;31343;47.520;19.144;2022-08-24T01:13:32;19.90;99.90
45619;DHT22;31343;47.520;19.144;2022-08-24T01:16:01;19.90;99.90
45619;DHT22;31343;47.520;19.144;2022-08-24T01:18:27;19.90;99.90
45619;DHT22;31343;47.520;19.144;2022-08-24T01:21:14;19.90;99.90
45619;DHT22;31343;47.520;19.144;2022-08-24T01:23:41;19.80;99.90
45619;DHT22;31343;47.520;19.144;2022-08-24T01:26:10;19.80;99.90
45619;DHT22;31343;47.520;19.144;2022-08-24T01:28:35;19.80;99.90
45619;DHT22;31343;47.520;19.144;2022-08-24T01:31:04;19.80;99.90
45619;DHT22;31343;47.520;19.144;2022-08-24T01:33:30;19.80;99.90
45619;DHT22;31343;47.520;19.144;2022-08-24T01:35:58;19.80;99.90
45619;DHT22;31343;47.520;19.144;2022-08-24T01:38:25;19.70;99.90
45619;DHT22;31343;47.520;19.144;2022-08-24T01:40:52;19.70;99.90
45619;DHT22;31343;47.520;19.144;2022-08-24T01:43:19;19.70;99.90
45619;DHT22;31343;47.520;19.144;2022-08-24T01:45:44;19.70;99.90
45619;DHT22;31343;47.520;19.144;2022-08-24T01:48:10;19.70;99.90
45619;DHT22;31343;47.520;19.144;2022-08-24T01:50:36;19.70;99.90
45619;DHT22;31343;47.520;19.144;2022-08-24T01:53:02;19.80;99.90
45619;DHT22;31343;47.520;19.144;2022-08-24T01:55:28;19.80;99.90
45619;DHT22;31343;47.520;19.144;2022-08-24T01:57:54;19.80;99.90
45619;DHT22;31343;47.520;19.144;2022-08-24T02:00:20;19.60;99.90
45619;DHT22;31343;47.520;19.144;2022-08-24T02:02:45;19.60;99.90
45619;DHT22;31343;47.520;19.144;2022-08-24T02:05:11;19.70;99.90
45619;DHT22;31343;47.520;19.144;2022-08-24T02:07:37;19.70;99.90
45619;DHT22;31343;47.520;19.144;2022-08-24T02:10:07;19.60;99.90
45619;DHT22;31343;47.520;19.144;2022-08-24T02:12:34;19.70;99.90
45619;DHT22;31343;47.520;19.144;2022-08-24T02:15:00;19.60;99.90
45619;DHT22;31343;47.520;19.144;2022-08-24T02:17:27;19.60;99.90
45619;DHT22;31343;47.520;19.144;2022-08-24T02:19:52;19.70;99.90
45619;DHT22;31343;47.520;19.144;2022-08-24T02:22:18;19.70;99.90
45619;DHT22;31343;47.520;19.144;2022-08-24T02:24:44;19.60;99.90
45619;DHT22;31343;47.520;19.144;2022-08-24T02:27:10;19.60;99.90
45619;DHT22;31343;47.520;19.144;2022-08-24T02:29:35;19.60;99.90
45619;DHT22;31343;47.520;19.144;2022-08-24T02:32:01;19.50;99.90
45619;DHT22;31343;47.520;19.144;2022-08-24T02:34:27;19.60;99.90
45619;DHT22;31343;47.520;19.144;2022-08-24T02:36:52;19.50;99.90
45619;DHT22;31343;47.520;19.144;2022-08-24T02:39:18;19.40;99.90
45619;DHT22;31343;47.520;19.144;2022-08-24T02:41:43;19.40;99.90
45619;DHT22;31343;47.520;19.144;2022-08-24T02:44:09;19.40;99.90
45619;DHT22;31343;47.520;19.144;2022-08-24T02:46:35;19.50;99.90
45619;DHT22;31343;47.520;19.144;2022-08-24T02:49:01;19.50;99.90
45619;DHT22;31343;47.520;19.144;2022-08-24T02:51:27;19.50;99.90
45619;DHT22;31343;47.520;19.144;2022-08-24T02:53:54;19.50;99.90
45619;DHT22;31343;47.520;19.144;2022-08-24T02:56:20;19.50;99.90
45619;DHT22;31343;47.520;19.144;2022-08-24T02:58:46;19.50;99.90
45619;DHT22;31343;47.520;19.144;2022-08-24T03:01:12;19.50;99.90
45619;DHT22;31343;47.520;19.144;2022-08-24T03:03:38;19.50;99.90
45619;DHT22;31343;47.520;19.144;2022-08-24T03:06:05;19.50;99.90
45619;DHT22;31343;47.520;19.144;2022-08-24T03:08:30;19.40;99.90
45619;DHT22;31343;47.520;19.144;2022-08-24T03:10:56;19.40;99.90
45619;DHT22;31343;47.520;19.144;2022-08-24T03:13:25;19.40;99.90
45619;DHT22;31343;47.520;19.144;2022-08-24T03:15:52;19.40;99.90
45619;DHT22;31343;47.520;19.144;2022-08-24T03:18:17;19.40;99.90
45619;DHT22;31343;47.520;19.144;2022-08-24T03:20:43;19.40;99.90
45619;DHT22;31343;47.520;19.144;2022-08-24T03:23:09;19.30;99.90
45619;DHT22;31343;47.520;19.144;2022-08-24T03:25:34;19.40;99.90
45619;DHT22;31343;47.520;19.144;2022-08-24T03:28:00;19.40;99.90
45619;DHT22;31343;47.520;19.144;2022-08-24T03:30:26;19.40;99.90
45619;DHT22;31343;47.520;19.144;2022-08-24T03:32:52;19.40;99.90
45619;DHT22;31343;47.520;19.144;2022-08-24T03:35:18;19.40;99.90
45619;DHT22;31343;47.520;19.144;2022-08-24T03:37:46;19.40;99.90
45619;DHT22;31343;47.520;19.144;2022-08-24T03:40:12;19.30;99.90
45619;DHT22;31343;47.520;19.144;2022-08-24T03:42:37;19.30;99.90
45619;DHT22;31343;47.520;19.144;2022-08-24T03:45:03;19.40;99.90
45619;DHT22;31343;47.520;19.144;2022-08-24T03:47:29;19.40;99.90
45619;DHT22;31343;47.520;19.144;2022-08-24T03:49:55;19.40;99.90
45619;DHT22;31343;47.520;19.144;2022-08-24T03:52:20;19.40;99.90
45619;DHT22;31343;47.520;19.144;2022-08-24T03:54:46;19.30;99.90
45619;DHT22;31343;47.520;19.144;2022-08-24T03:57:11;19.30;99.90
45619;DHT22;31343;47.520;19.144;2022-08-24T03:59:38;19.40;99.90
45619;DHT22;31343;47.520;19.144;2022-08-24T04:02:04;19.30;99.90
45619;DHT22;31343;47.520;19.144;2022-08-24T04:04:29;19.40;99.90
45619;DHT22;31343;47.520;19.144;2022-08-24T04:06:56;19.40;99.90
45619;DHT22;31343;47.520;19.144;2022-08-24T04:09:22;19.40;99.90
45619;DHT22;31343;47.520;19.144;2022-08-24T04:11:47;19.40;99.90
45619;DHT22;31343;47.520;19.144;2022-08-24T04:14:13;19.40;99.90
45619;DHT22;31343;47.520;19.144;2022-08-24T04:16:39;19.40;99.90
45619;DHT22;31343;47.520;19.144;2022-08-24T04:19:05;19.50;99.90
45619;DHT22;31343;47.520;19.144;2022-08-24T04:21:31;19.50;99.90
45619;DHT22;31343;47.520;19.144;2022-08-24T04:23:58;19.50;99.90
45619;DHT22;31343;47.520;19.144;2022-08-24T04:26:24;19.50;99.90
45619;DHT22;31343;47.520;19.144;2022-08-24T04:28:50;19.50;99.90
45619;DHT22;31343;47.520;19.144;2022-08-24T04:31:16;19.50;99.90
45619;DHT22;31343;47.520;19.144;2022-08-24T04:33:43;19.50;99.90
45619;DHT22;31343;47.520;19.144;2022-08-24T04:36:09;19.60;99.90
45619;DHT22;31343;47.520;19.144;2022-08-24T04:38:35;19.60;99.90
45619;DHT22;31343;47.520;19.144;2022-08-24T04:41:05;19.60;99.90
45619;DHT22;31343;47.520;19.144;2022-08-24T04:43:30;19.70;99.90
45619;DHT22;31343;47.520;19.144;2022-08-24T04:45:56;19.80;99.90
45619;DHT22;31343;47.520;19.144;2022-08-24T04:48:21;19.90;99.90
45619;DHT22;31343;47.520;19.144;2022-08-24T04:50:47;20.00;99.90
45619;DHT22;31343;47.520;19.144;2022-08-24T04:53:13;20.00;99.90
45619;DHT22;31343;47.520;19.144;2022-08-24T04:55:44;20.10;99.90
45619;DHT22;31343;47.520;19.144;2022-08-24T04:58:11;20.10;99.90
45619;DHT22;31343;47.520;19.144;2022-08-24T05:00:37;20.30;99.90
45619;DHT22;31343;47.520;19.144;2022-08-24T05:03:02;20.50;99.90
45619;DHT22;31343;47.520;19.144;2022-08-24T05:05:28;20.70;99.90
45619;DHT22;31343;47.520;19.144;2022-08-24T05:07:54;20.90;99.90
45619;DHT22;31343;47.520;19.144;2022-08-24T05:10:19;21.00;99.90
45619;DHT22;31343;47.520;19.144;2022-08-24T05:12:45;21.00;99.90
45619;DHT22;31343;47.520;19.144;2022-08-24T05:15:11;21.20;99.90
45619;DHT22;31343;47.520;19.144;2022-08-24T05:17:37;21.50;99.90
45619;DHT22;31343;47.520;19.144;2022-08-24T05:20:05;21.90;99.90
45619;DHT22;31343;47.520;19.144;2022-08-24T05:22:32;22.30;99.90
45619;DHT22;31343;47.520;19.144;2022-08-24T05:24:58;22.60;99.90
45619;DHT22;31343;47.520;19.144;2022-08-24T05:27:23;22.80;99.90
45619;DHT22;31343;47.520;19.144;2022-08-24T05:29:51;23.30;99.90
45619;DHT22;31343;47.520;19.144;2022-08-24T05:32:18;23.90;99.90
45619;DHT22;31343;47.520;19.144;2022-08-24T05:34:44;24.30;99.90
45619;DHT22;31343;47.520;19.144;2022-08-24T05:37:09;24.60;99.90
45619;DHT22;31343;47.520;19.144;2022-08-24T05:39:35;24.50;99.90
45619;DHT22;31343;47.520;19.144;2022-08-24T05:42:00;24.40;99.90
45619;DHT22;31343;47.520;19.144;2022-08-24T05:44:26;24.40;99.90
45619;DHT22;31343;47.520;19.144;2022-08-24T05:46:51;24.70;99.90
45619;DHT22;31343;47.520;19.144;2022-08-24T05:49:18;24.90;99.90
45619;DHT22;31343;47.520;19.144;2022-08-24T05:51:43;25.50;99.90
45619;DHT22;31343;47.520;19.144;2022-08-24T05:54:10;26.00;99.90
45619;DHT22;31343;47.520;19.144;2022-08-24T05:56:37;26.70;99.90
45619;DHT22;31343;47.520;19.144;2022-08-24T05:59:03;27.10;99.90
45619;DHT22;31343;47.520;19.144;2022-08-24T06:01:29;27.50;99.90
45619;DHT22;31343;47.520;19.144;2022-08-24T06:03:54;28.00;99.90
45619;DHT22;31343;47.520;19.144;2022-08-24T06:06:21;28.40;99.90
45619;DHT22;31343;47.520;19.144;2022-08-24T06:08:48;28.70;99.90
45619;DHT22;31343;47.520;19.144;2022-08-24T06:11:31;28.80;99.90
45619;DHT22;31343;47.520;19.144;2022-08-24T06:13:59;28.90;99.90
45619;DHT22;31343;47.520;19.144;2022-08-24T06:16:24;29.10;99.90
45619;DHT22;31343;47.520;19.144;2022-08-24T06:18:50;29.00;99.90
45619;DHT22;31343;47.520;19.144;2022-08-24T06:21:18;29.70;99.80
45619;DHT22;31343;47.520;19.144;2022-08-24T06:23:44;30.20;99.00
45619;DHT22;31343;47.520;19.144;2022-08-24T06:26:10;30.30;98.60
45619;DHT22;31343;47.520;19.144;2022-08-24T06:28:54;30.40;98.10
45619;DHT22;31343;47.520;19.144;2022-08-24T06:31:21;30.90;98.00
45619;DHT22;31343;47.520;19.144;2022-08-24T06:33:48;31.30;97.30
45619;DHT22;31343;47.520;19.144;2022-08-24T06:36:14;31.40;96.50
45619;DHT22;31343;47.520;19.144;2022-08-24T06:38:39;31.50;96.50
45619;DHT22;31343;47.520;19.144;2022-08-24T06:41:05;31.80;96.40
45619;DHT22;31343;47.520;19.144;2022-08-24T06:43:31;32.10;95.90
45619;DHT22;31343;47.520;19.144;2022-08-24T06:45:58;32.00;95.60
45619;DHT22;31343;47.520;19.144;2022-08-24T06:48:24;31.20;96.20
45619;DHT22;31343;47.520;19.144;2022-08-24T06:50:50;30.40;97.20
45619;DHT22;31343;47.520;19.144;2022-08-24T06:53:16;29.40;98.20
45619;DHT22;31343;47.520;19.144;2022-08-24T06:55:47;28.90;99.20
45619;DHT22;31343;47.520;19.144;2022-08-24T06:58:13;28.30;99.90
45619;DHT22;31343;47.520;19.144;2022-08-24T07:00:39;27.90;99.90
45619;DHT22;31343;47.520;19.144;2022-08-24T07:03:04;27.50;99.90
45619;DHT22;31343;47.520;19.144;2022-08-24T07:05:30;27.10;99.90
45619;DHT22;31343;47.520;19.144;2022-08-24T07:07:55;26.90;99.90
45619;DHT22;31343;47.520;19.144;2022-08-24T07:10:24;26.70;99.90
45619;DHT22;31343;47.520;19.144;2022-08-24T07:12:49;26.70;99.90
45619;DHT22;31343;47.520;19.144;2022-08-24T07:15:15;27.00;99.90
45619;DHT22;31343;47.520;19.144;2022-08-24T07:17:41;27.20;99.90
45619;DHT22;31343;47.520;19.144;2022-08-24T07:20:06;27.40;99.90
45619;DHT22;31343;47.520;19.144;2022-08-24T07:22:33;27.40;99.90
45619;DHT22;31343;47.520;19.144;2022-08-24T07:24:59;27.20;99.90
45619;DHT22;31343;47.520;19.144;2022-08-24T07:27:24;27.10;99.90
45619;DHT22;31343;47.520;19.144;2022-08-24T07:29:52;27.20;99.90
45619;DHT22;31343;47.520;19.144;2022-08-24T07:32:19;27.30;99.90
45619;DHT22;31343;47.520;19.144;2022-08-24T07:34:45;27.30;99.90
45619;DHT22;31343;47.520;19.144;2022-08-24T07:37:10;27.30;99.90
45619;DHT22;31343;47.520;19.144;2022-08-24T07:39:36;28.00;99.90
45619;DHT22;31343;47.520;19.144;2022-08-24T07:42:02;28.40;99.90
45619;DHT22;31343;47.520;19.144;2022-08-24T07:44:27;28.10;99.90
45619;DHT22;31343;47.520;19.144;2022-08-24T07:46:55;28.70;99.90
45619;DHT22;31343;47.520;19.144;2022-08-24T07:49:21;29.60;99.70
45619;DHT22;31343;47.520;19.144;2022-08-24T07:51:46;29.60;98.30
45619;DHT22;31343;47.520;19.144;2022-08-24T07:54:13;29.90;98.60
45619;DHT22;31343;47.520;19.144;2022-08-24T07:56:39;30.00;98.30
45619;DHT22;31343;47.520;19.144;2022-08-24T07:59:04;30.30;97.60
45619;DHT22;31343;47.520;19.144;2022-08-24T08:01:30;30.00;97.60
45619;DHT22;31343;47.520;19.144;2022-08-24T08:03:56;29.90;97.80
45619;DHT22;31343;47.520;19.144;2022-08-24T08:06:22;30.30;97.80
45619;DHT22;31343;47.520;19.144;2022-08-24T08:08:48;29.90;96.00
45619;DHT22;31343;47.520;19.144;2022-08-24T08:11:13;28.60;97.40
45619;DHT22;31343;47.520;19.144;2022-08-24T08:13:39;28.50;98.30
45619;DHT22;31343;47.520;19.144;2022-08-24T08:16:05;28.60;98.20
45619;DHT22;31343;47.520;19.144;2022-08-24T08:18:31;28.50;98.60
45619;DHT22;31343;47.520;19.144;2022-08-24T08:20:56;27.90;99.20
45619;DHT22;31343;47.520;19.144;2022-08-24T08:23:22;27.80;99.90
45619;DHT22;31343;47.520;19.144;2022-08-24T08:26:10;27.60;99.40
45619;DHT22;31343;47.520;19.144;2022-08-24T08:28:36;27.30;99.90
45619;DHT22;31343;47.520;19.144;2022-08-24T08:31:02;27.40;99.90
45619;DHT22;31343;47.520;19.144;2022-08-24T08:33:28;26.90;99.90
45619;DHT22;31343;47.520;19.144;2022-08-24T08:38:28;27.30;99.90
45619;DHT22;31343;47.520;19.144;2022-08-24T08:43:42;27.20;99.90
45619;DHT22;31343;47.520;19.144;2022-08-24T08:54:10;28.10;99.90
45619;DHT22;31343;47.520;19.144;2022-08-24T08:56:43;28.10;99.90
45619;DHT22;31343;47.520;19.144;2022-08-24T08:59:24;28.00;99.90
45619;DHT22;31343;47.520;19.144;2022-08-24T09:19:54;27.60;99.90
45619;DHT22;31343;47.520;19.144;2022-08-24T09:22:22;27.40;99.90
45619;DHT22;31343;47.520;19.144;2022-08-24T09:34:58;28.50;99.70
45619;DHT22;31343;47.520;19.144;2022-08-24T09:37:28;28.70;99.10
45619;DHT22;31343;47.520;19.144;2022-08-24T09:55:52;27.70;99.90
45619;DHT22;31343;47.520;19.144;2022-08-24T10:08:53;27.10;99.90
45619;DHT22;31343;47.520;19.144;2022-08-24T10:11:33;27.00;99.90
45619;DHT22;31343;47.520;19.144;2022-08-24T10:19:36;27.70;99.90
45619;DHT22;31343;47.520;19.144;2022-08-24T10:27:20;27.70;99.90
45619;DHT22;31343;47.520;19.144;2022-08-24T10:35:19;27.60;99.90
45619;DHT22;31343;47.520;19.144;2022-08-24T10:48:36;27.20;99.90
45619;DHT22;31343;47.520;19.144;2022-08-24T10:53:31;27.00;99.90
45619;DHT22;31343;47.520;19.144;2022-08-24T11:04:28;27.40;99.90
45619;DHT22;31343;47.520;19.144;2022-08-24T11:09:04;27.30;99.90
45619;DHT22;31343;47.520;19.144;2022-08-24T11:11:31;27.50;99.90
45619;DHT22;31343;47.520;19.144;2022-08-24T11:16:38;26.80;99.90
45619;DHT22;31343;47.520;19.144;2022-08-24T11:19:09;26.90;99.90
45619;DHT22;31343;47.520;19.144;2022-08-24T11:21:46;27.20;99.90
45619;DHT22;31343;47.520;19.144;2022-08-24T11:26:53;26.90;99.90
45619;DHT22;31343;47.520;19.144;2022-08-24T11:29:19;27.00;99.90
45619;DHT22;31343;47.520;19.144;2022-08-24T11:31:47;27.30;99.90
45619;DHT22;31343;47.520;19.144;2022-08-24T11:34:35;27.50;99.90
45619;DHT22;31343;47.520;19.144;2022-08-24T11:37:02;27.30;99.90
45619;DHT22;31343;47.520;19.144;2022-08-24T11:39:34;27.60;99.90
45619;DHT22;31343;47.520;19.144;2022-08-24T11:46:53;28.60;99.90
45619;DHT22;31343;47.520;19.144;2022-08-24T11:49:26;29.50;99.90
45619;DHT22;31343;47.520;19.144;2022-08-24T11:51:59;30.10;99.90
45619;DHT22;31343;47.520;19.144;2022-08-24T11:57:14;30.70;99.90
45619;DHT22;31343;47.520;19.144;2022-08-24T11:59:56;30.40;99.90
45619;DHT22;31343;47.520;19.144;2022-08-24T12:02:34;30.40;99.90
45619;DHT22;31343;47.520;19.144;2022-08-24T12:05:03;30.50;99.90
45619;DHT22;31343;47.520;19.144;2022-08-24T12:12:33;30.70;99.90
45619;DHT22;31343;47.520;19.144;2022-08-24T12:15:04;30.50;99.90
45619;DHT22;31343;47.520;19.144;2022-08-24T12:17:33;30.00;99.90
45619;DHT22;31343;47.520;19.144;2022-08-24T12:20:04;29.80;99.90
45619;DHT22;31343;47.520;19.144;2022-08-24T12:22:31;29.60;99.90
45619;DHT22;31343;47.520;19.144;2022-08-24T12:24:58;29.30;99.90
45619;DHT22;31343;47.520;19.144;2022-08-24T12:27:27;29.10;99.90
45619;DHT22;31343;47.520;19.144;2022-08-24T12:30:12;28.90;99.90
45619;DHT22;31343;47.520;19.144;2022-08-24T12:32:40;28.60;99.90
45619;DHT22;31343;47.520;19.144;2022-08-24T12:35:12;28.40;99.90
45619;DHT22;31343;47.520;19.144;2022-08-24T12:37:41;28.20;99.90
45619;DHT22;31343;47.520;19.144;2022-08-24T12:40:12;28.00;99.90
45619;DHT22;31343;47.520;19.144;2022-08-24T12:43:26;27.70;99.90
45619;DHT22;31343;47.520;19.144;2022-08-24T12:45:26;27.50;99.90
45619;DHT22;31343;47.520;19.144;2022-08-24T12:50:33;27.30;99.90
45619;DHT22;31343;47.520;19.144;2022-08-24T12:55:37;27.00;99.90
45619;DHT22;31343;47.520;19.144;2022-08-24T13:00:48;26.70;99.90
45619;DHT22;31343;47.520;19.144;2022-08-24T13:03:24;26.60;99.90
45619;DHT22;31343;47.520;19.144;2022-08-24T13:05:52;26.60;99.90
45619;DHT22;31343;47.520;19.144;2022-08-24T13:08:36;26.60;99.90
45619;DHT22;31343;47.520;19.144;2022-08-24T13:11:44;26.70;99.90
45619;DHT22;31343;47.520;19.144;2022-08-24T13:21:56;26.70;99.90
45619;DHT22;31343;47.520;19.144;2022-08-24T13:26:54;26.70;99.90
45619;DHT22;31343;47.520;19.144;2022-08-24T13:29:20;26.50;99.90
45619;DHT22;31343;47.520;19.144;2022-08-24T13:31:50;26.50;99.90
45619;DHT22;31343;47.520;19.144;2022-08-24T13:36:48;26.50;99.90
45619;DHT22;31343;47.520;19.144;2022-08-24T13:44:34;26.40;99.90
45619;DHT22;31343;47.520;19.144;2022-08-24T13:47:11;26.30;99.90
45619;DHT22;31343;47.520;19.144;2022-08-24T13:52:24;26.30;99.90
45619;DHT22;31343;47.520;19.144;2022-08-24T14:00:12;26.30;99.90
45619;DHT22;31343;47.520;19.144;2022-08-24T14:02:54;26.30;99.90
45619;DHT22;31343;47.520;19.144;2022-08-24T14:10:33;26.50;99.90
45619;DHT22;31343;47.520;19.144;2022-08-24T14:13:05;26.60;99.90
45619;DHT22;31343;47.520;19.144;2022-08-24T14:15:51;26.70;99.90
45619;DHT22;31343;47.520;19.144;2022-08-24T14:18:50;26.70;99.90
45619;DHT22;31343;47.520;19.144;2022-08-24T14:21:20;26.70;99.90
45619;DHT22;31343;47.520;19.144;2022-08-24T14:23:49;26.70;99.90
45619;DHT22;31343;47.520;19.144;2022-08-24T14:29:25;26.80;99.90
45619;DHT22;31343;47.520;19.144;2022-08-24T14:39:29;26.70;99.90
45619;DHT22;31343;47.520;19.144;2022-08-24T14:42:03;26.70;99.90
45619;DHT22;31343;47.520;19.144;2022-08-24T14:44:49;26.60;99.90
45619;DHT22;31343;47.520;19.144;2022-08-24T14:50:02;26.60;99.90
45619;DHT22;31343;47.520;19.144;2022-08-24T14:57:43;26.60;99.90
45619;DHT22;31343;47.520;19.144;2022-08-24T15:00:15;26.60;99.90
45619;DHT22;31343;47.520;19.144;2022-08-24T15:07:41;26.60;99.90
45619;DHT22;31343;47.520;19.144;2022-08-24T15:10:19;26.70;99.90
45619;DHT22;31343;47.520;19.144;2022-08-24T15:15:23;26.60;99.90
45619;DHT22;31343;47.520;19.144;2022-08-24T15:18:02;26.60;99.90
45619;DHT22;31343;47.520;19.144;2022-08-24T15:23:06;26.70;99.90
45619;DHT22;31343;47.520;19.144;2022-08-24T15:25:38;26.70;99.90
45619;DHT22;31343;47.520;19.144;2022-08-24T15:28:28;26.80;99.90
45619;DHT22;31343;47.520;19.144;2022-08-24T15:30:54;26.70;99.90
45619;DHT22;31343;47.520;19.144;2022-08-24T15:33:20;26.70;99.90
45619;DHT22;31343;47.520;19.144;2022-08-24T15:35:47;26.80;99.90
45619;DHT22;31343;47.520;19.144;2022-08-24T15:40:41;26.70;99.90
45619;DHT22;31343;47.520;19.144;2022-08-24T15:43:09;26.70;99.90
45619;DHT22;31343;47.520;19.144;2022-08-24T15:45:37;26.80;99.90
45619;DHT22;31343;47.520;19.144;2022-08-24T15:48:07;26.80;99.90
45619;DHT22;31343;47.520;19.144;2022-08-24T15:50:39;26.90;99.90
45619;DHT22;31343;47.520;19.144;2022-08-24T15:53:06;27.00;99.90
45619;DHT22;31343;47.520;19.144;2022-08-24T15:55:37;26.90;99.90
45619;DHT22;31343;47.520;19.144;2022-08-24T16:00:44;26.90;99.90
45619;DHT22;31343;47.520;19.144;2022-08-24T16:09:04;26.80;99.90
45619;DHT22;31343;47.520;19.144;2022-08-24T16:11:33;26.80;99.90
45619;DHT22;31343;47.520;19.144;2022-08-24T16:13:59;26.70;99.90
45619;DHT22;31343;47.520;19.144;2022-08-24T16:16:32;26.60;99.90
45619;DHT22;31343;47.520;19.144;2022-08-24T16:18:59;26.50;99.90
45619;DHT22;31343;47.520;19.144;2022-08-24T16:21:29;26.60;99.90
45619;DHT22;31343;47.520;19.144;2022-08-24T16:24:01;26.60;99.90
45619;DHT22;31343;47.520;19.144;2022-08-24T16:27:10;26.50;99.90
45619;DHT22;31343;47.520;19.144;2022-08-24T16:32:17;26.50;99.90
45619;DHT22;31343;47.520;19.144;2022-08-24T16:34:43;26.40;99.90
45619;DHT22;31343;47.520;19.144;2022-08-24T16:37:09;26.40;99.90
45619;DHT22;31343;47.520;19.144;2022-08-24T16:39:35;26.30;99.90
45619;DHT22;31343;47.520;19.144;2022-08-24T16:42:03;26.30;99.90
45619;DHT22;31343;47.520;19.144;2022-08-24T16:44:31;26.20;99.90
45619;DHT22;31343;47.520;19.144;2022-08-24T16:46:58;26.00;99.90
45619;DHT22;31343;47.520;19.144;2022-08-24T16:49:23;26.00;99.90
45619;DHT22;31343;47.520;19.144;2022-08-24T16:51:49;26.00;99.90
45619;DHT22;31343;47.520;19.144;2022-08-24T16:54:15;25.90;99.90
45619;DHT22;31343;47.520;19.144;2022-08-24T16:56:41;25.80;99.90
45619;DHT22;31343;47.520;19.144;2022-08-24T16:59:08;25.80;99.90
45619;DHT22;31343;47.520;19.144;2022-08-24T17:01:34;25.80;99.90
45619;DHT22;31343;47.520;19.144;2022-08-24T17:03:59;25.60;99.90
45619;DHT22;31343;47.520;19.144;2022-08-24T17:06:25;25.60;99.90
45619;DHT22;31343;47.520;19.144;2022-08-24T17:08:50;25.50;99.90
45619;DHT22;31343;47.520;19.144;2022-08-24T17:11:16;25.50;99.90
45619;DHT22;31343;47.520;19.144;2022-08-24T17:13:41;25.40;99.90
45619;DHT22;31343;47.520;19.144;2022-08-24T17:16:07;25.30;99.90
45619;DHT22;31343;47.520;19.144;2022-08-24T17:18:33;25.20;99.90
45619;DHT22;31343;47.520;19.144;2022-08-24T17:20:59;25.10;99.90
45619;DHT22;31343;47.520;19.144;2022-08-24T17:23:26;25.00;99.90
45619;DHT22;31343;47.520;19.144;2022-08-24T17:25:52;25.00;99.90
45619;DHT22;31343;47.520;19.144;2022-08-24T17:28:17;24.90;99.90
45619;DHT22;31343;47.520;19.144;2022-08-24T17:30:43;24.70;99.90
45619;DHT22;31343;47.520;19.144;2022-08-24T17:33:09;24.70;99.90
45619;DHT22;31343;47.520;19.144;2022-08-24T17:35:38;24.70;99.90
45619;DHT22;31343;47.520;19.144;2022-08-24T17:38:04;24.70;99.90
45619;DHT22;31343;47.520;19.144;2022-08-24T17:40:31;24.60;99.90
45619;DHT22;31343;47.520;19.144;2022-08-24T17:42:57;24.50;99.90
45619;DHT22;31343;47.520;19.144;2022-08-24T17:45:22;24.40;99.90
45619;DHT22;31343;47.520;19.144;2022-08-24T17:47:49;24.40;99.90
45619;DHT22;31343;47.520;19.144;2022-08-24T17:50:15;24.30;99.90
45619;DHT22;31343;47.520;19.144;2022-08-24T17:52:41;24.20;99.90
45619;DHT22;31343;47.520;19.144;2022-08-24T17:55:07;24.20;99.90
45619;DHT22;31343;47.520;19.144;2022-08-24T17:57:33;24.10;99.90
45619;DHT22;31343;47.520;19.144;2022-08-24T17:59:59;24.00;99.90
45619;DHT22;31343;47.520;19.144;2022-08-24T18:02:24;24.00;99.90
45619;DHT22;31343;47.520;19.144;2022-08-24T18:04:50;24.00;99.90
45619;DHT22;31343;47.520;19.144;2022-08-24T18:07:18;23.90;99.90
45619;DHT22;31343;47.520;19.144;2022-08-24T18:10:03;23.90;99.90
45619;DHT22;31343;47.520;19.144;2022-08-24T18:12:29;23.80;99.90
45619;DHT22;31343;47.520;19.144;2022-08-24T18:14:54;23.70;99.90
45619;DHT22;31343;47.520;19.144;2022-08-24T18:17:21;23.70;99.90
45619;DHT22;31343;47.520;19.144;2022-08-24T18:19:47;23.70;99.90
45619;DHT22;31343;47.520;19.144;2022-08-24T18:22:14;23.60;99.90
45619;DHT22;31343;47.520;19.144;2022-08-24T18:24:40;23.50;99.90
45619;DHT22;31343;47.520;19.144;2022-08-24T18:27:07;23.50;99.90
45619;DHT22;31343;47.520;19.144;2022-08-24T18:29:33;23.50;99.90
45619;DHT22;31343;47.520;19.144;2022-08-24T18:31:58;23.40;99.90
45619;DHT22;31343;47.520;19.144;2022-08-24T18:34:24;23.30;99.90
45619;DHT22;31343;47.520;19.144;2022-08-24T18:36:50;23.40;99.90
45619;DHT22;31343;47.520;19.144;2022-08-24T18:39:16;23.30;99.90
45619;DHT22;31343;47.520;19.144;2022-08-24T18:41:42;23.20;99.90
45619;DHT22;31343;47.520;19.144;2022-08-24T18:44:08;23.20;99.90
45619;DHT22;31343;47.520;19.144;2022-08-24T18:46:35;23.20;99.90
45619;DHT22;31343;47.520;19.144;2022-08-24T18:49:01;23.20;99.90